sensor_id;sensor_type;location;lat;lon;timestamp;P1;durP1;ratioP1;P2;durP2;ratioP2
15312;SDS011;7757;52.626;4.746;2023-08-30T00:00:36;6.28;;;1.90;;
15312;SDS011;7757;52.626;4.746;2023-08-30T00:03:02;9.30;;;2.10;;
15312;SDS011;7757;52.626;4.746;2023-08-30T00:05:28;14.35;;;2.28;;
15312;SDS011;7757;52.626;4.746;2023-08-30T00:07:54;8.82;;;2.25;;
15312;SDS011;7757;52.626;4.746;2023-08-30T00:10:20;7.50;;;1.90;;
15312;SDS011;7757;52.626;4.746;2023-08-30T00:12:46;8.68;;;2.10;;
15312;SDS011;7757;52.626;4.746;2023-08-30T00:15:11;9.48;;;2.25;;
15312;SDS011;7757;52.626;4.746;2023-08-30T00:17:36;8.65;;;2.25;;
15312;SDS011;7757;52.626;4.746;2023-08-30T00:20:02;9.75;;;2.50;;
15312;SDS011;7757;52.626;4.746;2023-08-30T00:22:28;9.50;;;2.50;;
15312;SDS011;7757;52.626;4.746;2023-08-30T00:24:53;9.30;;;2.40;;
15312;SDS011;7757;52.626;4.746;2023-08-30T00:27:19;8.38;;;2.33;;
15312;SDS011;7757;52.626;4.746;2023-08-30T00:29:47;9.23;;;2.13;;
15312;SDS011;7757;52.626;4.746;2023-08-30T00:32:12;7.07;;;2.00;;
15312;SDS011;7757;52.626;4.746;2023-08-30T00:34:38;8.23;;;2.20;;
15312;SDS011;7757;52.626;4.746;2023-08-30T00:37:03;8.82;;;2.28;;
15312;SDS011;7757;52.626;4.746;2023-08-30T00:39:31;9.23;;;2.30;;
15312;SDS011;7757;52.626;4.746;2023-08-30T00:41:56;9.57;;;2.67;;
15312;SDS011;7757;52.626;4.746;2023-08-30T00:44:22;8.73;;;2.55;;
15312;SDS011;7757;52.626;4.746;2023-08-30T00:46:47;10.20;;;2.80;;
15312;SDS011;7757;52.626;4.746;2023-08-30T00:49:13;11.95;;;2.78;;
15312;SDS011;7757;52.626;4.746;2023-08-30T00:51:39;8.63;;;2.47;;
15312;SDS011;7757;52.626;4.746;2023-08-30T00:54:05;9.45;;;2.50;;
15312;SDS011;7757;52.626;4.746;2023-08-30T00:56:32;10.02;;;2.60;;
15312;SDS011;7757;52.626;4.746;2023-08-30T00:58:58;9.07;;;2.33;;
15312;SDS011;7757;52.626;4.746;2023-08-30T01:01:25;8.65;;;2.30;;
15312;SDS011;7757;52.626;4.746;2023-08-30T01:03:51;10.55;;;2.70;;
15312;SDS011;7757;52.626;4.746;2023-08-30T01:06:16;9.50;;;2.70;;
15312;SDS011;7757;52.626;4.746;2023-08-30T01:08:41;10.82;;;2.88;;
15312;SDS011;7757;52.626;4.746;2023-08-30T01:11:12;11.15;;;2.80;;
15312;SDS011;7757;52.626;4.746;2023-08-30T01:14:02;11.55;;;2.88;;
15312;SDS011;7757;52.626;4.746;2023-08-30T01:16:32;10.20;;;2.90;;
15312;SDS011;7757;52.626;4.746;2023-08-30T01:19:00;9.15;;;2.58;;
15312;SDS011;7757;52.626;4.746;2023-08-30T01:24:17;9.13;;;2.72;;
15312;SDS011;7757;52.626;4.746;2023-08-30T01:29:36;9.43;;;2.65;;
15312;SDS011;7757;52.626;4.746;2023-08-30T01:32:03;10.45;;;3.00;;
15312;SDS011;7757;52.626;4.746;2023-08-30T01:34:30;10.57;;;2.90;;
15312;SDS011;7757;52.626;4.746;2023-08-30T01:36:57;9.40;;;2.72;;
15312;SDS011;7757;52.626;4.746;2023-08-30T01:39:23;10.07;;;2.83;;
15312;SDS011;7757;52.626;4.746;2023-08-30T01:41:49;10.60;;;2.80;;
15312;SDS011;7757;52.626;4.746;2023-08-30T01:44:17;11.30;;;2.88;;
15312;SDS011;7757;52.626;4.746;2023-08-30T01:46:43;9.95;;;2.67;;
15312;SDS011;7757;52.626;4.746;2023-08-30T01:49:11;9.80;;;2.65;;
15312;SDS011;7757;52.626;4.746;2023-08-30T01:51:37;9.13;;;2.50;;
15312;SDS011;7757;52.626;4.746;2023-08-30T01:54:04;8.52;;;2.50;;
15312;SDS011;7757;52.626;4.746;2023-08-30T01:56:32;9.65;;;2.38;;
15312;SDS011;7757;52.626;4.746;2023-08-30T01:58:58;10.30;;;3.03;;
15312;SDS011;7757;52.626;4.746;2023-08-30T02:01:23;9.98;;;2.42;;
15312;SDS011;7757;52.626;4.746;2023-08-30T02:03:50;9.13;;;2.58;;
15312;SDS011;7757;52.626;4.746;2023-08-30T02:06:17;10.07;;;2.75;;
15312;SDS011;7757;52.626;4.746;2023-08-30T02:09:14;11.48;;;2.70;;
15312;SDS011;7757;52.626;4.746;2023-08-30T02:11:45;8.80;;;2.50;;
15312;SDS011;7757;52.626;4.746;2023-08-30T02:14:12;10.27;;;2.60;;
15312;SDS011;7757;52.626;4.746;2023-08-30T02:16:42;11.75;;;2.70;;
15312;SDS011;7757;52.626;4.746;2023-08-30T02:19:10;11.30;;;3.10;;
15312;SDS011;7757;52.626;4.746;2023-08-30T02:21:37;14.93;;;3.15;;
15312;SDS011;7757;52.626;4.746;2023-08-30T02:24:04;9.75;;;2.63;;
15312;SDS011;7757;52.626;4.746;2023-08-30T02:26:29;10.02;;;2.78;;
15312;SDS011;7757;52.626;4.746;2023-08-30T02:28:55;9.02;;;2.60;;
15312;SDS011;7757;52.626;4.746;2023-08-30T02:31:20;13.23;;;3.22;;
15312;SDS011;7757;52.626;4.746;2023-08-30T02:33:45;13.30;;;3.03;;
15312;SDS011;7757;52.626;4.746;2023-08-30T02:36:11;11.23;;;2.90;;
15312;SDS011;7757;52.626;4.746;2023-08-30T02:38:36;11.52;;;2.70;;
15312;SDS011;7757;52.626;4.746;2023-08-30T02:41:01;11.00;;;3.20;;
15312;SDS011;7757;52.626;4.746;2023-08-30T02:43:27;9.40;;;2.72;;
15312;SDS011;7757;52.626;4.746;2023-08-30T02:45:52;11.15;;;3.00;;
15312;SDS011;7757;52.626;4.746;2023-08-30T02:48:18;10.05;;;2.83;;
15312;SDS011;7757;52.626;4.746;2023-08-30T02:50:44;12.20;;;3.13;;
15312;SDS011;7757;52.626;4.746;2023-08-30T02:53:09;10.75;;;2.70;;
15312;SDS011;7757;52.626;4.746;2023-08-30T02:55:35;9.90;;;3.00;;
15312;SDS011;7757;52.626;4.746;2023-08-30T02:58:00;9.95;;;3.05;;
15312;SDS011;7757;52.626;4.746;2023-08-30T03:00:27;10.23;;;3.28;;
15312;SDS011;7757;52.626;4.746;2023-08-30T03:02:53;11.43;;;2.97;;
15312;SDS011;7757;52.626;4.746;2023-08-30T03:05:18;10.55;;;2.95;;
15312;SDS011;7757;52.626;4.746;2023-08-30T03:07:45;9.38;;;3.00;;
15312;SDS011;7757;52.626;4.746;2023-08-30T03:10:11;9.48;;;2.90;;
15312;SDS011;7757;52.626;4.746;2023-08-30T03:12:38;10.35;;;2.90;;
15312;SDS011;7757;52.626;4.746;2023-08-30T03:15:04;13.77;;;3.50;;
15312;SDS011;7757;52.626;4.746;2023-08-30T03:17:30;10.63;;;3.20;;
15312;SDS011;7757;52.626;4.746;2023-08-30T03:19:55;11.15;;;3.28;;
15312;SDS011;7757;52.626;4.746;2023-08-30T03:22:21;12.60;;;3.00;;
15312;SDS011;7757;52.626;4.746;2023-08-30T03:24:47;10.98;;;3.33;;
15312;SDS011;7757;52.626;4.746;2023-08-30T03:27:12;12.65;;;3.00;;
15312;SDS011;7757;52.626;4.746;2023-08-30T03:29:38;10.65;;;3.05;;
15312;SDS011;7757;52.626;4.746;2023-08-30T03:32:05;10.93;;;3.40;;
15312;SDS011;7757;52.626;4.746;2023-08-30T03:34:30;11.95;;;3.33;;
15312;SDS011;7757;52.626;4.746;2023-08-30T03:36:56;12.25;;;3.70;;
15312;SDS011;7757;52.626;4.746;2023-08-30T03:39:21;12.02;;;3.28;;
15312;SDS011;7757;52.626;4.746;2023-08-30T03:41:47;11.32;;;3.60;;
15312;SDS011;7757;52.626;4.746;2023-08-30T03:44:13;12.98;;;3.60;;
15312;SDS011;7757;52.626;4.746;2023-08-30T03:46:39;12.63;;;3.85;;
15312;SDS011;7757;52.626;4.746;2023-08-30T03:49:04;11.93;;;3.25;;
15312;SDS011;7757;52.626;4.746;2023-08-30T03:51:29;13.50;;;3.33;;
15312;SDS011;7757;52.626;4.746;2023-08-30T03:53:55;10.45;;;3.20;;
15312;SDS011;7757;52.626;4.746;2023-08-30T03:56:24;12.38;;;3.38;;
15312;SDS011;7757;52.626;4.746;2023-08-30T03:58:50;11.02;;;3.38;;
15312;SDS011;7757;52.626;4.746;2023-08-30T04:01:15;10.35;;;3.15;;
15312;SDS011;7757;52.626;4.746;2023-08-30T04:03:41;12.80;;;3.80;;
15312;SDS011;7757;52.626;4.746;2023-08-30T04:06:06;12.80;;;3.75;;
15312;SDS011;7757;52.626;4.746;2023-08-30T04:08:33;12.70;;;3.42;;
15312;SDS011;7757;52.626;4.746;2023-08-30T04:10:58;11.82;;;3.53;;
15312;SDS011;7757;52.626;4.746;2023-08-30T04:13:25;12.50;;;3.38;;
15312;SDS011;7757;52.626;4.746;2023-08-30T04:15:51;11.07;;;3.03;;
15312;SDS011;7757;52.626;4.746;2023-08-30T04:18:16;10.85;;;3.22;;
15312;SDS011;7757;52.626;4.746;2023-08-30T04:20:45;11.70;;;3.97;;
15312;SDS011;7757;52.626;4.746;2023-08-30T04:23:12;10.85;;;3.33;;
15312;SDS011;7757;52.626;4.746;2023-08-30T04:25:38;12.20;;;3.65;;
15312;SDS011;7757;52.626;4.746;2023-08-30T04:28:04;19.35;;;4.90;;
15312;SDS011;7757;52.626;4.746;2023-08-30T04:30:30;13.20;;;4.03;;
15312;SDS011;7757;52.626;4.746;2023-08-30T04:32:58;11.57;;;3.95;;
15312;SDS011;7757;52.626;4.746;2023-08-30T04:35:24;15.27;;;4.75;;
15312;SDS011;7757;52.626;4.746;2023-08-30T04:37:49;12.50;;;3.92;;
15312;SDS011;7757;52.626;4.746;2023-08-30T04:40:15;17.10;;;5.00;;
15312;SDS011;7757;52.626;4.746;2023-08-30T04:42:40;12.63;;;4.03;;
15312;SDS011;7757;52.626;4.746;2023-08-30T04:45:06;14.05;;;4.25;;
15312;SDS011;7757;52.626;4.746;2023-08-30T04:47:32;13.88;;;4.55;;
15312;SDS011;7757;52.626;4.746;2023-08-30T04:49:58;12.70;;;3.72;;
15312;SDS011;7757;52.626;4.746;2023-08-30T04:52:27;12.18;;;3.42;;
15312;SDS011;7757;52.626;4.746;2023-08-30T04:54:52;13.80;;;3.78;;
15312;SDS011;7757;52.626;4.746;2023-08-30T04:57:18;11.82;;;3.60;;
15312;SDS011;7757;52.626;4.746;2023-08-30T04:59:44;11.77;;;3.60;;
15312;SDS011;7757;52.626;4.746;2023-08-30T05:02:10;14.05;;;3.95;;
15312;SDS011;7757;52.626;4.746;2023-08-30T05:04:37;13.43;;;4.20;;
15312;SDS011;7757;52.626;4.746;2023-08-30T05:07:03;11.38;;;3.58;;
15312;SDS011;7757;52.626;4.746;2023-08-30T05:09:33;13.18;;;3.38;;
15312;SDS011;7757;52.626;4.746;2023-08-30T05:12:00;11.45;;;3.72;;
15312;SDS011;7757;52.626;4.746;2023-08-30T05:14:26;12.15;;;4.03;;
15312;SDS011;7757;52.626;4.746;2023-08-30T05:16:52;11.40;;;3.70;;
15312;SDS011;7757;52.626;4.746;2023-08-30T05:19:18;14.43;;;4.45;;
15312;SDS011;7757;52.626;4.746;2023-08-30T05:21:45;12.43;;;4.47;;
15312;SDS011;7757;52.626;4.746;2023-08-30T05:24:10;14.43;;;4.30;;
15312;SDS011;7757;52.626;4.746;2023-08-30T05:26:36;12.60;;;4.25;;
15312;SDS011;7757;52.626;4.746;2023-08-30T05:29:02;13.00;;;4.35;;
15312;SDS011;7757;52.626;4.746;2023-08-30T05:31:28;12.10;;;4.15;;
15312;SDS011;7757;52.626;4.746;2023-08-30T05:33:53;12.85;;;4.40;;
15312;SDS011;7757;52.626;4.746;2023-08-30T05:36:19;14.15;;;4.70;;
15312;SDS011;7757;52.626;4.746;2023-08-30T05:38:45;14.68;;;4.20;;
15312;SDS011;7757;52.626;4.746;2023-08-30T05:41:11;13.20;;;4.32;;
15312;SDS011;7757;52.626;4.746;2023-08-30T05:43:36;12.85;;;4.30;;
15312;SDS011;7757;52.626;4.746;2023-08-30T05:46:02;13.18;;;4.32;;
15312;SDS011;7757;52.626;4.746;2023-08-30T05:48:30;14.05;;;5.03;;
15312;SDS011;7757;52.626;4.746;2023-08-30T05:50:56;11.77;;;3.85;;
15312;SDS011;7757;52.626;4.746;2023-08-30T05:53:22;12.68;;;4.28;;
15312;SDS011;7757;52.626;4.746;2023-08-30T05:55:48;10.82;;;3.72;;
15312;SDS011;7757;52.626;4.746;2023-08-30T05:58:13;13.90;;;4.45;;
15312;SDS011;7757;52.626;4.746;2023-08-30T06:00:40;14.07;;;4.22;;
15312;SDS011;7757;52.626;4.746;2023-08-30T06:03:06;13.65;;;4.60;;
15312;SDS011;7757;52.626;4.746;2023-08-30T06:05:31;14.93;;;4.35;;
15312;SDS011;7757;52.626;4.746;2023-08-30T06:07:58;14.77;;;4.57;;
15312;SDS011;7757;52.626;4.746;2023-08-30T06:10:23;14.15;;;4.75;;
15312;SDS011;7757;52.626;4.746;2023-08-30T06:12:50;14.05;;;4.40;;
15312;SDS011;7757;52.626;4.746;2023-08-30T06:15:15;14.75;;;4.20;;
15312;SDS011;7757;52.626;4.746;2023-08-30T06:17:42;17.73;;;4.15;;
15312;SDS011;7757;52.626;4.746;2023-08-30T06:20:08;15.02;;;4.15;;
15312;SDS011;7757;52.626;4.746;2023-08-30T06:22:34;14.48;;;4.30;;
15312;SDS011;7757;52.626;4.746;2023-08-30T06:24:59;16.23;;;4.30;;
15312;SDS011;7757;52.626;4.746;2023-08-30T06:27:25;15.75;;;4.15;;
15312;SDS011;7757;52.626;4.746;2023-08-30T06:29:50;11.77;;;3.70;;
15312;SDS011;7757;52.626;4.746;2023-08-30T06:32:17;12.55;;;3.70;;
15312;SDS011;7757;52.626;4.746;2023-08-30T06:34:43;12.50;;;3.80;;
15312;SDS011;7757;52.626;4.746;2023-08-30T06:37:09;13.00;;;3.72;;
15312;SDS011;7757;52.626;4.746;2023-08-30T06:39:35;11.70;;;3.80;;
15312;SDS011;7757;52.626;4.746;2023-08-30T06:42:02;13.73;;;3.55;;
15312;SDS011;7757;52.626;4.746;2023-08-30T06:44:28;11.27;;;3.38;;
15312;SDS011;7757;52.626;4.746;2023-08-30T06:46:55;13.40;;;3.50;;
15312;SDS011;7757;52.626;4.746;2023-08-30T06:49:22;12.18;;;3.20;;
15312;SDS011;7757;52.626;4.746;2023-08-30T06:51:48;12.50;;;3.25;;
15312;SDS011;7757;52.626;4.746;2023-08-30T06:54:13;17.77;;;3.95;;
15312;SDS011;7757;52.626;4.746;2023-08-30T06:56:39;12.02;;;4.00;;
15312;SDS011;7757;52.626;4.746;2023-08-30T06:59:04;11.82;;;3.80;;
15312;SDS011;7757;52.626;4.746;2023-08-30T07:01:31;12.80;;;4.10;;
15312;SDS011;7757;52.626;4.746;2023-08-30T07:03:56;14.15;;;4.53;;
15312;SDS011;7757;52.626;4.746;2023-08-30T07:06:22;17.45;;;4.60;;
15312;SDS011;7757;52.626;4.746;2023-08-30T07:08:48;14.63;;;4.55;;
15312;SDS011;7757;52.626;4.746;2023-08-30T07:11:13;12.93;;;4.38;;
15312;SDS011;7757;52.626;4.746;2023-08-30T07:13:40;16.02;;;4.60;;
15312;SDS011;7757;52.626;4.746;2023-08-30T07:16:05;14.40;;;4.90;;
15312;SDS011;7757;52.626;4.746;2023-08-30T07:18:31;15.38;;;5.45;;
15312;SDS011;7757;52.626;4.746;2023-08-30T07:20:56;13.77;;;4.80;;
15312;SDS011;7757;52.626;4.746;2023-08-30T07:23:22;12.60;;;4.63;;
15312;SDS011;7757;52.626;4.746;2023-08-30T07:25:47;13.52;;;4.32;;
15312;SDS011;7757;52.626;4.746;2023-08-30T07:28:12;12.13;;;3.80;;
15312;SDS011;7757;52.626;4.746;2023-08-30T07:30:39;16.90;;;4.07;;
15312;SDS011;7757;52.626;4.746;2023-08-30T07:33:04;15.88;;;4.40;;
15312;SDS011;7757;52.626;4.746;2023-08-30T07:35:33;14.15;;;3.60;;
15312;SDS011;7757;52.626;4.746;2023-08-30T07:37:58;12.20;;;3.50;;
15312;SDS011;7757;52.626;4.746;2023-08-30T07:40:24;15.13;;;4.32;;
15312;SDS011;7757;52.626;4.746;2023-08-30T07:42:51;12.60;;;3.90;;
15312;SDS011;7757;52.626;4.746;2023-08-30T07:45:17;16.92;;;4.35;;
15312;SDS011;7757;52.626;4.746;2023-08-30T07:47:43;17.25;;;4.70;;
15312;SDS011;7757;52.626;4.746;2023-08-30T07:50:08;14.63;;;4.13;;
15312;SDS011;7757;52.626;4.746;2023-08-30T07:52:34;14.98;;;4.05;;
15312;SDS011;7757;52.626;4.746;2023-08-30T07:55:00;15.93;;;4.68;;
15312;SDS011;7757;52.626;4.746;2023-08-30T07:57:25;16.27;;;4.65;;
15312;SDS011;7757;52.626;4.746;2023-08-30T07:59:51;16.67;;;3.63;;
15312;SDS011;7757;52.626;4.746;2023-08-30T08:02:17;15.38;;;3.60;;
15312;SDS011;7757;52.626;4.746;2023-08-30T08:04:42;22.55;;;4.20;;
15312;SDS011;7757;52.626;4.746;2023-08-30T08:07:08;17.85;;;5.28;;
15312;SDS011;7757;52.626;4.746;2023-08-30T08:09:35;14.23;;;4.32;;
15312;SDS011;7757;52.626;4.746;2023-08-30T08:12:00;16.60;;;4.18;;
15312;SDS011;7757;52.626;4.746;2023-08-30T08:14:29;16.90;;;3.90;;
15312;SDS011;7757;52.626;4.746;2023-08-30T08:16:56;15.70;;;3.72;;
15312;SDS011;7757;52.626;4.746;2023-08-30T08:19:21;13.85;;;3.58;;
15312;SDS011;7757;52.626;4.746;2023-08-30T08:21:47;12.75;;;4.05;;
15312;SDS011;7757;52.626;4.746;2023-08-30T08:24:13;12.27;;;3.72;;
15312;SDS011;7757;52.626;4.746;2023-08-30T08:26:38;15.02;;;3.67;;
15312;SDS011;7757;52.626;4.746;2023-08-30T08:29:04;12.55;;;3.65;;
15312;SDS011;7757;52.626;4.746;2023-08-30T08:31:29;13.05;;;3.97;;
15312;SDS011;7757;52.626;4.746;2023-08-30T08:34:09;14.50;;;4.10;;
15312;SDS011;7757;52.626;4.746;2023-08-30T08:36:36;13.35;;;3.75;;
15312;SDS011;7757;52.626;4.746;2023-08-30T08:39:03;14.73;;;3.80;;
15312;SDS011;7757;52.626;4.746;2023-08-30T08:41:34;12.63;;;4.10;;
15312;SDS011;7757;52.626;4.746;2023-08-30T08:44:10;17.90;;;3.80;;
15312;SDS011;7757;52.626;4.746;2023-08-30T08:46:37;13.23;;;3.35;;
15312;SDS011;7757;52.626;4.746;2023-08-30T08:51:40;10.20;;;3.17;;
15312;SDS011;7757;52.626;4.746;2023-08-30T08:54:06;12.00;;;3.90;;
15312;SDS011;7757;52.626;4.746;2023-08-30T08:56:34;10.50;;;3.10;;
15312;SDS011;7757;52.626;4.746;2023-08-30T08:59:00;12.13;;;3.80;;
15312;SDS011;7757;52.626;4.746;2023-08-30T09:01:26;13.68;;;3.97;;
15312;SDS011;7757;52.626;4.746;2023-08-30T09:03:52;10.07;;;3.33;;
15312;SDS011;7757;52.626;4.746;2023-08-30T09:06:18;11.65;;;4.10;;
15312;SDS011;7757;52.626;4.746;2023-08-30T09:08:43;12.65;;;4.00;;
15312;SDS011;7757;52.626;4.746;2023-08-30T09:11:09;9.32;;;3.17;;
15312;SDS011;7757;52.626;4.746;2023-08-30T09:13:34;10.38;;;3.38;;
15312;SDS011;7757;52.626;4.746;2023-08-30T09:16:00;10.70;;;2.92;;
15312;SDS011;7757;52.626;4.746;2023-08-30T09:18:25;9.45;;;2.47;;
15312;SDS011;7757;52.626;4.746;2023-08-30T09:20:53;10.07;;;2.88;;
15312;SDS011;7757;52.626;4.746;2023-08-30T09:25:54;10.15;;;2.53;;
15312;SDS011;7757;52.626;4.746;2023-08-30T09:28:20;8.23;;;2.22;;
15312;SDS011;7757;52.626;4.746;2023-08-30T09:30:51;8.20;;;2.20;;
15312;SDS011;7757;52.626;4.746;2023-08-30T09:33:22;7.88;;;2.20;;
15312;SDS011;7757;52.626;4.746;2023-08-30T09:35:48;9.25;;;2.30;;
15312;SDS011;7757;52.626;4.746;2023-08-30T09:38:17;7.10;;;1.90;;
15312;SDS011;7757;52.626;4.746;2023-08-30T09:40:46;7.70;;;2.05;;
15312;SDS011;7757;52.626;4.746;2023-08-30T09:43:12;10.75;;;2.80;;
15312;SDS011;7757;52.626;4.746;2023-08-30T09:45:39;9.93;;;2.30;;
15312;SDS011;7757;52.626;4.746;2023-08-30T09:48:05;9.73;;;2.53;;
15312;SDS011;7757;52.626;4.746;2023-08-30T09:50:33;8.27;;;2.30;;
15312;SDS011;7757;52.626;4.746;2023-08-30T09:53:07;9.95;;;2.53;;
15312;SDS011;7757;52.626;4.746;2023-08-30T09:55:34;8.75;;;2.17;;
15312;SDS011;7757;52.626;4.746;2023-08-30T09:58:02;10.63;;;2.47;;
15312;SDS011;7757;52.626;4.746;2023-08-30T10:00:29;12.00;;;2.67;;
15312;SDS011;7757;52.626;4.746;2023-08-30T10:02:55;10.57;;;2.60;;
15312;SDS011;7757;52.626;4.746;2023-08-30T10:05:24;13.15;;;2.42;;
15312;SDS011;7757;52.626;4.746;2023-08-30T10:07:51;11.02;;;2.40;;
15312;SDS011;7757;52.626;4.746;2023-08-30T10:10:19;8.25;;;2.05;;
15312;SDS011;7757;52.626;4.746;2023-08-30T10:12:45;11.68;;;2.70;;
15312;SDS011;7757;52.626;4.746;2023-08-30T10:15:12;13.65;;;2.30;;
15312;SDS011;7757;52.626;4.746;2023-08-30T10:17:39;10.43;;;2.45;;
15312;SDS011;7757;52.626;4.746;2023-08-30T10:20:09;10.25;;;2.22;;
15312;SDS011;7757;52.626;4.746;2023-08-30T10:22:37;10.02;;;2.30;;
15312;SDS011;7757;52.626;4.746;2023-08-30T10:25:15;10.70;;;2.25;;
15312;SDS011;7757;52.626;4.746;2023-08-30T10:27:45;14.45;;;3.00;;
15312;SDS011;7757;52.626;4.746;2023-08-30T10:30:13;10.57;;;2.50;;
15312;SDS011;7757;52.626;4.746;2023-08-30T10:32:42;19.90;;;2.72;;
15312;SDS011;7757;52.626;4.746;2023-08-30T10:35:13;12.27;;;2.50;;
15312;SDS011;7757;52.626;4.746;2023-08-30T10:37:39;12.23;;;2.58;;
15312;SDS011;7757;52.626;4.746;2023-08-30T10:40:05;19.65;;;2.70;;
15312;SDS011;7757;52.626;4.746;2023-08-30T10:42:32;20.17;;;3.10;;
15312;SDS011;7757;52.626;4.746;2023-08-30T10:45:04;19.50;;;2.75;;
15312;SDS011;7757;52.626;4.746;2023-08-30T10:47:33;17.02;;;2.45;;
15312;SDS011;7757;52.626;4.746;2023-08-30T10:50:05;15.65;;;2.60;;
15312;SDS011;7757;52.626;4.746;2023-08-30T10:52:32;14.23;;;2.30;;
15312;SDS011;7757;52.626;4.746;2023-08-30T10:55:09;11.30;;;2.30;;
15312;SDS011;7757;52.626;4.746;2023-08-30T10:57:35;14.85;;;3.13;;
15312;SDS011;7757;52.626;4.746;2023-08-30T11:00:08;11.82;;;2.47;;
15312;SDS011;7757;52.626;4.746;2023-08-30T11:02:47;14.88;;;2.53;;
15312;SDS011;7757;52.626;4.746;2023-08-30T11:05:18;12.13;;;2.40;;
15312;SDS011;7757;52.626;4.746;2023-08-30T11:07:45;12.38;;;2.20;;
15312;SDS011;7757;52.626;4.746;2023-08-30T11:10:12;14.00;;;2.63;;
15312;SDS011;7757;52.626;4.746;2023-08-30T11:12:41;12.02;;;2.35;;
15312;SDS011;7757;52.626;4.746;2023-08-30T11:15:08;11.18;;;2.28;;
15312;SDS011;7757;52.626;4.746;2023-08-30T11:17:34;14.80;;;2.10;;
15312;SDS011;7757;52.626;4.746;2023-08-30T11:20:07;16.65;;;2.40;;
15312;SDS011;7757;52.626;4.746;2023-08-30T11:22:36;14.15;;;2.15;;
15312;SDS011;7757;52.626;4.746;2023-08-30T11:25:03;10.40;;;2.00;;
15312;SDS011;7757;52.626;4.746;2023-08-30T11:27:29;12.77;;;2.03;;
15312;SDS011;7757;52.626;4.746;2023-08-30T11:29:58;13.98;;;1.90;;
15312;SDS011;7757;52.626;4.746;2023-08-30T11:32:25;14.82;;;2.00;;
15312;SDS011;7757;52.626;4.746;2023-08-30T11:34:56;11.60;;;2.13;;
15312;SDS011;7757;52.626;4.746;2023-08-30T11:37:23;9.20;;;1.83;;
15312;SDS011;7757;52.626;4.746;2023-08-30T11:39:51;13.82;;;2.10;;
15312;SDS011;7757;52.626;4.746;2023-08-30T11:42:17;10.95;;;1.90;;
15312;SDS011;7757;52.626;4.746;2023-08-30T11:44:43;8.77;;;2.22;;
15312;SDS011;7757;52.626;4.746;2023-08-30T11:47:09;10.93;;;1.98;;
15312;SDS011;7757;52.626;4.746;2023-08-30T11:49:35;12.60;;;2.05;;
15312;SDS011;7757;52.626;4.746;2023-08-30T11:52:00;10.52;;;1.67;;
15312;SDS011;7757;52.626;4.746;2023-08-30T11:54:27;8.63;;;1.83;;
15312;SDS011;7757;52.626;4.746;2023-08-30T11:56:53;11.38;;;1.58;;
15312;SDS011;7757;52.626;4.746;2023-08-30T11:59:19;10.40;;;1.63;;
15312;SDS011;7757;52.626;4.746;2023-08-30T12:01:46;30.75;;;2.72;;
15312;SDS011;7757;52.626;4.746;2023-08-30T12:04:12;13.25;;;2.00;;
15312;SDS011;7757;52.626;4.746;2023-08-30T12:06:37;19.15;;;2.35;;
15312;SDS011;7757;52.626;4.746;2023-08-30T12:09:04;18.58;;;2.20;;
15312;SDS011;7757;52.626;4.746;2023-08-30T12:11:33;9.52;;;2.08;;
15312;SDS011;7757;52.626;4.746;2023-08-30T12:14:02;12.48;;;1.60;;
15312;SDS011;7757;52.626;4.746;2023-08-30T12:16:27;11.68;;;1.90;;
15312;SDS011;7757;52.626;4.746;2023-08-30T12:18:53;8.07;;;1.27;;
15312;SDS011;7757;52.626;4.746;2023-08-30T12:21:18;7.97;;;1.80;;
15312;SDS011;7757;52.626;4.746;2023-08-30T12:23:44;8.15;;;1.48;;
15312;SDS011;7757;52.626;4.746;2023-08-30T12:26:11;10.68;;;1.92;;
15312;SDS011;7757;52.626;4.746;2023-08-30T12:28:37;6.53;;;1.25;;
15312;SDS011;7757;52.626;4.746;2023-08-30T12:31:04;7.47;;;1.63;;
15312;SDS011;7757;52.626;4.746;2023-08-30T12:33:32;5.68;;;1.25;;
15312;SDS011;7757;52.626;4.746;2023-08-30T12:35:58;8.68;;;1.77;;
15312;SDS011;7757;52.626;4.746;2023-08-30T12:38:24;5.13;;;1.27;;
15312;SDS011;7757;52.626;4.746;2023-08-30T12:40:50;8.50;;;1.50;;
15312;SDS011;7757;52.626;4.746;2023-08-30T12:43:19;7.93;;;1.45;;
15312;SDS011;7757;52.626;4.746;2023-08-30T12:45:46;9.63;;;1.50;;
15312;SDS011;7757;52.626;4.746;2023-08-30T12:48:13;6.97;;;1.38;;
15312;SDS011;7757;52.626;4.746;2023-08-30T12:50:42;10.82;;;1.80;;
15312;SDS011;7757;52.626;4.746;2023-08-30T12:53:09;9.43;;;1.50;;
15312;SDS011;7757;52.626;4.746;2023-08-30T12:55:35;7.53;;;1.50;;
15312;SDS011;7757;52.626;4.746;2023-08-30T12:58:01;11.15;;;1.70;;
15312;SDS011;7757;52.626;4.746;2023-08-30T13:00:30;13.80;;;1.98;;
15312;SDS011;7757;52.626;4.746;2023-08-30T13:02:55;11.35;;;1.75;;
15312;SDS011;7757;52.626;4.746;2023-08-30T13:05:23;11.00;;;1.70;;
15312;SDS011;7757;52.626;4.746;2023-08-30T13:07:48;10.48;;;1.63;;
15312;SDS011;7757;52.626;4.746;2023-08-30T13:10:14;11.95;;;2.00;;
15312;SDS011;7757;52.626;4.746;2023-08-30T13:12:40;10.70;;;1.40;;
15312;SDS011;7757;52.626;4.746;2023-08-30T13:15:06;9.00;;;1.52;;
15312;SDS011;7757;52.626;4.746;2023-08-30T13:17:32;10.15;;;1.80;;
15312;SDS011;7757;52.626;4.746;2023-08-30T13:19:58;9.27;;;1.75;;
15312;SDS011;7757;52.626;4.746;2023-08-30T13:22:26;10.82;;;1.75;;
15312;SDS011;7757;52.626;4.746;2023-08-30T13:24:52;16.77;;;3.10;;
15312;SDS011;7757;52.626;4.746;2023-08-30T13:27:17;14.40;;;2.63;;
15312;SDS011;7757;52.626;4.746;2023-08-30T13:29:43;21.58;;;2.45;;
15312;SDS011;7757;52.626;4.746;2023-08-30T13:32:09;13.35;;;2.03;;
15312;SDS011;7757;52.626;4.746;2023-08-30T13:34:34;14.75;;;2.40;;
15312;SDS011;7757;52.626;4.746;2023-08-30T13:37:00;12.57;;;2.38;;
15312;SDS011;7757;52.626;4.746;2023-08-30T13:39:25;14.57;;;2.45;;
15312;SDS011;7757;52.626;4.746;2023-08-30T13:41:50;14.90;;;3.28;;
15312;SDS011;7757;52.626;4.746;2023-08-30T13:44:17;13.82;;;2.20;;
15312;SDS011;7757;52.626;4.746;2023-08-30T13:46:46;18.23;;;2.08;;
15312;SDS011;7757;52.626;4.746;2023-08-30T13:49:14;21.80;;;2.25;;
15312;SDS011;7757;52.626;4.746;2023-08-30T13:51:40;13.07;;;2.00;;
15312;SDS011;7757;52.626;4.746;2023-08-30T13:54:06;9.45;;;1.63;;
15312;SDS011;7757;52.626;4.746;2023-08-30T13:56:32;12.68;;;1.83;;
15312;SDS011;7757;52.626;4.746;2023-08-30T13:58:57;16.30;;;1.92;;
15312;SDS011;7757;52.626;4.746;2023-08-30T14:01:23;14.40;;;1.60;;
15312;SDS011;7757;52.626;4.746;2023-08-30T14:03:48;14.80;;;1.60;;
15312;SDS011;7757;52.626;4.746;2023-08-30T14:06:14;8.82;;;1.65;;
15312;SDS011;7757;52.626;4.746;2023-08-30T14:08:39;8.90;;;1.73;;
15312;SDS011;7757;52.626;4.746;2023-08-30T14:11:05;8.77;;;1.70;;
15312;SDS011;7757;52.626;4.746;2023-08-30T14:13:31;11.43;;;1.70;;
15312;SDS011;7757;52.626;4.746;2023-08-30T14:15:59;9.68;;;1.63;;
15312;SDS011;7757;52.626;4.746;2023-08-30T14:18:26;13.02;;;1.80;;
15312;SDS011;7757;52.626;4.746;2023-08-30T14:20:55;9.82;;;1.50;;
15312;SDS011;7757;52.626;4.746;2023-08-30T14:23:22;8.13;;;2.17;;
15312;SDS011;7757;52.626;4.746;2023-08-30T14:25:54;8.88;;;1.40;;
15312;SDS011;7757;52.626;4.746;2023-08-30T14:28:21;8.98;;;1.58;;
15312;SDS011;7757;52.626;4.746;2023-08-30T14:30:46;9.88;;;1.48;;
15312;SDS011;7757;52.626;4.746;2023-08-30T14:33:14;6.93;;;1.55;;
15312;SDS011;7757;52.626;4.746;2023-08-30T14:35:41;9.55;;;1.50;;
15312;SDS011;7757;52.626;4.746;2023-08-30T14:38:07;8.13;;;1.50;;
15312;SDS011;7757;52.626;4.746;2023-08-30T14:40:32;7.10;;;1.50;;
15312;SDS011;7757;52.626;4.746;2023-08-30T14:42:58;5.57;;;1.35;;
15312;SDS011;7757;52.626;4.746;2023-08-30T14:45:23;5.15;;;1.30;;
15312;SDS011;7757;52.626;4.746;2023-08-30T14:47:50;7.05;;;1.58;;
15312;SDS011;7757;52.626;4.746;2023-08-30T14:50:15;6.68;;;1.27;;
15312;SDS011;7757;52.626;4.746;2023-08-30T14:52:41;6.78;;;1.30;;
15312;SDS011;7757;52.626;4.746;2023-08-30T14:55:06;8.57;;;1.42;;
15312;SDS011;7757;52.626;4.746;2023-08-30T14:57:32;8.63;;;1.48;;